sensor_id;sensor_type;location;lat;lon;timestamp;pressure;altitude;pressure_sealevel;temperature;humidity
29315;BME280;16320;53.954;9.506;2023-01-28T00:03:03;102689.63;;;0.22;100.00
29315;BME280;16320;53.954;9.506;2023-01-28T00:06:13;102687.06;;;0.24;100.00
29315;BME280;16320;53.954;9.506;2023-01-28T00:09:18;102694.25;;;0.37;100.00
29315;BME280;16320;53.954;9.506;2023-01-28T00:12:22;102699.28;;;0.29;100.00
29315;BME280;16320;53.954;9.506;2023-01-28T00:15:27;102704.44;;;0.31;100.00
29315;BME280;16320;53.954;9.506;2023-01-28T00:18:32;102701.56;;;0.17;100.00
29315;BME280;16320;53.954;9.506;2023-01-28T00:21:37;102688.53;;;0.12;100.00
29315;BME280;16320;53.954;9.506;2023-01-28T00:24:41;102699.97;;;0.22;100.00
29315;BME280;16320;53.954;9.506;2023-01-28T00:27:45;102699.25;;;0.28;100.00
29315;BME280;16320;53.954;9.506;2023-01-28T00:30:50;102690.44;;;0.20;100.00
29315;BME280;16320;53.954;9.506;2023-01-28T00:33:55;102697.19;;;0.14;100.00
29315;BME280;16320;53.954;9.506;2023-01-28T00:37:00;102702.09;;;0.02;100.00
29315;BME280;16320;53.954;9.506;2023-01-28T00:40:05;102707.25;;;0.02;100.00
29315;BME280;16320;53.954;9.506;2023-01-28T00:43:10;102697.06;;;0.08;100.00
29315;BME280;16320;53.954;9.506;2023-01-28T00:46:15;102700.53;;;0.09;100.00
29315;BME280;16320;53.954;9.506;2023-01-28T00:49:19;102697.81;;;0.04;100.00
29315;BME280;16320;53.954;9.506;2023-01-28T00:52:24;102684.91;;;0.04;100.00
29315;BME280;16320;53.954;9.506;2023-01-28T00:55:29;102686.44;;;-0.04;100.00
29315;BME280;16320;53.954;9.506;2023-01-28T00:58:33;102693.28;;;-0.06;100.00
29315;BME280;16320;53.954;9.506;2023-01-28T01:01:38;102692.97;;;-0.19;100.00
29315;BME280;16320;53.954;9.506;2023-01-28T01:04:43;102692.31;;;-0.11;100.00
29315;BME280;16320;53.954;9.506;2023-01-28T01:07:59;102687.09;;;-0.13;100.00
29315;BME280;16320;53.954;9.506;2023-01-28T01:11:05;102676.44;;;-0.25;100.00
29315;BME280;16320;53.954;9.506;2023-01-28T01:14:10;102678.91;;;-0.30;100.00
29315;BME280;16320;53.954;9.506;2023-01-28T01:17:14;102680.75;;;-0.26;100.00
29315;BME280;16320;53.954;9.506;2023-01-28T01:20:28;102692.53;;;-0.37;100.00
29315;BME280;16320;53.954;9.506;2023-01-28T01:23:36;102701.19;;;-0.35;100.00
29315;BME280;16320;53.954;9.506;2023-01-28T01:26:40;102701.41;;;-0.26;100.00
29315;BME280;16320;53.954;9.506;2023-01-28T01:29:46;102696.25;;;-0.26;100.00
29315;BME280;16320;53.954;9.506;2023-01-28T01:32:50;102697.28;;;-0.19;100.00
29315;BME280;16320;53.954;9.506;2023-01-28T01:35:55;102700.09;;;-0.08;100.00
29315;BME280;16320;53.954;9.506;2023-01-28T01:39:00;102704.38;;;-0.10;100.00
29315;BME280;16320;53.954;9.506;2023-01-28T01:42:13;102699.91;;;-0.17;100.00
29315;BME280;16320;53.954;9.506;2023-01-28T01:45:18;102701.66;;;-0.15;100.00
29315;BME280;16320;53.954;9.506;2023-01-28T01:48:32;102699.91;;;-0.17;100.00
29315;BME280;16320;53.954;9.506;2023-01-28T01:51:39;102700.81;;;-0.15;100.00
29315;BME280;16320;53.954;9.506;2023-01-28T01:54:47;102694.09;;;-0.07;100.00
29315;BME280;16320;53.954;9.506;2023-01-28T01:57:55;102695.00;;;-0.05;100.00
29315;BME280;16320;53.954;9.506;2023-01-28T02:01:02;102696.69;;;-0.07;100.00
29315;BME280;16320;53.954;9.506;2023-01-28T02:04:22;102697.34;;;-0.16;100.00
29315;BME280;16320;53.954;9.506;2023-01-28T02:07:28;102694.97;;;-0.07;100.00
29315;BME280;16320;53.954;9.506;2023-01-28T02:10:33;102695.16;;;0.01;100.00
29315;BME280;16320;53.954;9.506;2023-01-28T02:13:43;102693.44;;;0.00;100.00
29315;BME280;16320;53.954;9.506;2023-01-28T02:16:49;102690.81;;;-0.02;100.00
29315;BME280;16320;53.954;9.506;2023-01-28T02:20:09;102686.34;;;-0.07;100.00
29315;BME280;16320;53.954;9.506;2023-01-28T02:23:30;102684.25;;;-0.24;100.00
29315;BME280;16320;53.954;9.506;2023-01-28T02:30:36;102681.38;;;-0.34;100.00
29315;BME280;16320;53.954;9.506;2023-01-28T02:34:09;102688.97;;;-0.42;100.00
29315;BME280;16320;53.954;9.506;2023-01-28T02:37:21;102695.78;;;-0.44;100.00
29315;BME280;16320;53.954;9.506;2023-01-28T02:40:32;102699.03;;;-0.51;100.00
29315;BME280;16320;53.954;9.506;2023-01-28T02:44:01;102688.22;;;-0.37;100.00
29315;BME280;16320;53.954;9.506;2023-01-28T02:47:14;102688.88;;;-0.45;100.00
29315;BME280;16320;53.954;9.506;2023-01-28T02:50:48;102685.59;;;-0.73;100.00
29315;BME280;16320;53.954;9.506;2023-01-28T03:01:09;102692.97;;;-0.85;100.00
29315;BME280;16320;53.954;9.506;2023-01-28T03:04:26;102692.56;;;-0.69;100.00
29315;BME280;16320;53.954;9.506;2023-01-28T03:07:34;102693.72;;;-0.89;100.00
29315;BME280;16320;53.954;9.506;2023-01-28T03:10:41;102690.53;;;-0.81;100.00
29315;BME280;16320;53.954;9.506;2023-01-28T03:13:47;102687.72;;;-0.88;100.00
29315;BME280;16320;53.954;9.506;2023-01-28T03:17:48;102675.59;;;-0.93;100.00
29315;BME280;16320;53.954;9.506;2023-01-28T03:21:31;102684.94;;;-0.96;100.00
29315;BME280;16320;53.954;9.506;2023-01-28T03:24:55;102678.72;;;-1.03;100.00
29315;BME280;16320;53.954;9.506;2023-01-28T03:28:21;102684.75;;;-1.04;100.00
29315;BME280;16320;53.954;9.506;2023-01-28T03:31:45;102683.72;;;-1.09;100.00
29315;BME280;16320;53.954;9.506;2023-01-28T03:35:10;102685.56;;;-1.05;100.00
29315;BME280;16320;53.954;9.506;2023-01-28T03:38:35;102682.84;;;-1.09;100.00
29315;BME280;16320;53.954;9.506;2023-01-28T03:42:04;102690.44;;;-1.14;100.00
29315;BME280;16320;53.954;9.506;2023-01-28T03:45:10;102690.94;;;-1.27;100.00
29315;BME280;16320;53.954;9.506;2023-01-28T03:48:14;102682.53;;;-1.22;100.00
29315;BME280;16320;53.954;9.506;2023-01-28T03:51:18;102680.31;;;-1.08;100.00
29315;BME280;16320;53.954;9.506;2023-01-28T03:54:23;102680.06;;;-1.17;100.00
29315;BME280;16320;53.954;9.506;2023-01-28T03:57:28;102686.66;;;-1.27;100.00
29315;BME280;16320;53.954;9.506;2023-01-28T04:00:35;102685.88;;;-1.24;100.00
29315;BME280;16320;53.954;9.506;2023-01-28T04:03:47;102682.84;;;-1.40;100.00
29315;BME280;16320;53.954;9.506;2023-01-28T04:06:53;102689.75;;;-1.39;100.00
29315;BME280;16320;53.954;9.506;2023-01-28T04:09:57;102693.34;;;-1.34;100.00
29315;BME280;16320;53.954;9.506;2023-01-28T04:13:02;102703.47;;;-1.40;100.00
29315;BME280;16320;53.954;9.506;2023-01-28T04:16:07;102707.06;;;-1.35;100.00
29315;BME280;16320;53.954;9.506;2023-01-28T04:19:12;102699.59;;;-1.25;100.00
29315;BME280;16320;53.954;9.506;2023-01-28T04:22:17;102704.84;;;-1.22;100.00
29315;BME280;16320;53.954;9.506;2023-01-28T04:25:21;102703.88;;;-1.26;100.00
29315;BME280;16320;53.954;9.506;2023-01-28T04:28:26;102703.75;;;-1.31;100.00
29315;BME280;16320;53.954;9.506;2023-01-28T04:31:30;102696.06;;;-1.29;100.00
29315;BME280;16320;53.954;9.506;2023-01-28T04:34:35;102698.00;;;-1.22;100.00
29315;BME280;16320;53.954;9.506;2023-01-28T04:37:43;102703.16;;;-1.20;100.00
29315;BME280;16320;53.954;9.506;2023-01-28T04:40:52;102696.00;;;-1.31;100.00
29315;BME280;16320;53.954;9.506;2023-01-28T04:43:57;102694.34;;;-1.29;100.00
29315;BME280;16320;53.954;9.506;2023-01-28T04:47:01;102691.66;;;-1.33;100.00
29315;BME280;16320;53.954;9.506;2023-01-28T04:50:06;102686.59;;;-1.29;100.00
29315;BME280;16320;53.954;9.506;2023-01-28T04:53:12;102681.44;;;-1.29;100.00
29315;BME280;16320;53.954;9.506;2023-01-28T04:56:16;102676.03;;;-1.38;100.00
29315;BME280;16320;53.954;9.506;2023-01-28T04:59:21;102677.88;;;-1.34;100.00
29315;BME280;16320;53.954;9.506;2023-01-28T05:02:26;102681.97;;;-1.40;100.00
29315;BME280;16320;53.954;9.506;2023-01-28T05:05:31;102682.63;;;-1.48;100.00
29315;BME280;16320;53.954;9.506;2023-01-28T05:08:35;102679.06;;;-1.53;100.00
29315;BME280;16320;53.954;9.506;2023-01-28T05:11:39;102666.13;;;-1.54;100.00
29315;BME280;16320;53.954;9.506;2023-01-28T05:14:44;102660.47;;;-1.41;100.00
29315;BME280;16320;53.954;9.506;2023-01-28T05:17:48;102645.88;;;-1.40;100.00
29315;BME280;16320;53.954;9.506;2023-01-28T05:20:52;102650.22;;;-1.39;100.00
29315;BME280;16320;53.954;9.506;2023-01-28T05:23:56;102651.00;;;-1.42;100.00
29315;BME280;16320;53.954;9.506;2023-01-28T05:27:02;102645.97;;;-1.37;100.00
29315;BME280;16320;53.954;9.506;2023-01-28T05:30:07;102651.56;;;-1.52;100.00
29315;BME280;16320;53.954;9.506;2023-01-28T05:33:12;102638.00;;;-1.45;100.00
29315;BME280;16320;53.954;9.506;2023-01-28T05:36:16;102638.09;;;-1.42;100.00
29315;BME280;16320;53.954;9.506;2023-01-28T05:39:21;102657.88;;;-1.42;100.00
29315;BME280;16320;53.954;9.506;2023-01-28T05:42:25;102640.59;;;-1.45;100.00
29315;BME280;16320;53.954;9.506;2023-01-28T05:45:29;102634.63;;;-1.44;100.00
29315;BME280;16320;53.954;9.506;2023-01-28T05:48:34;102637.19;;;-1.44;100.00
29315;BME280;16320;53.954;9.506;2023-01-28T05:51:39;102631.19;;;-1.44;100.00
29315;BME280;16320;53.954;9.506;2023-01-28T05:54:43;102631.28;;;-1.40;100.00
29315;BME280;16320;53.954;9.506;2023-01-28T05:57:48;102612.31;;;-1.42;100.00
29315;BME280;16320;53.954;9.506;2023-01-28T06:00:54;102615.00;;;-1.39;100.00
29315;BME280;16320;53.954;9.506;2023-01-28T06:03:59;102622.81;;;-1.36;100.00
29315;BME280;16320;53.954;9.506;2023-01-28T06:07:05;102620.91;;;-1.43;100.00
29315;BME280;16320;53.954;9.506;2023-01-28T06:10:10;102626.75;;;-1.49;100.00
29315;BME280;16320;53.954;9.506;2023-01-28T06:13:14;102641.59;;;-1.70;100.00
29315;BME280;16320;53.954;9.506;2023-01-28T06:16:19;102648.63;;;-1.64;100.00
29315;BME280;16320;53.954;9.506;2023-01-28T06:19:23;102649.31;;;-1.70;100.00
29315;BME280;16320;53.954;9.506;2023-01-28T06:22:27;102651.16;;;-1.66;100.00
29315;BME280;16320;53.954;9.506;2023-01-28T06:25:31;102656.44;;;-1.61;100.00
29315;BME280;16320;53.954;9.506;2023-01-28T06:28:36;102649.72;;;-1.56;100.00
29315;BME280;16320;53.954;9.506;2023-01-28T06:31:40;102647.97;;;-1.57;100.00
29315;BME280;16320;53.954;9.506;2023-01-28T06:34:47;102654.88;;;-1.56;100.00
29315;BME280;16320;53.954;9.506;2023-01-28T06:37:52;102669.31;;;-1.61;100.00
29315;BME280;16320;53.954;9.506;2023-01-28T06:40:56;102679.53;;;-1.64;100.00
29315;BME280;16320;53.954;9.506;2023-01-28T06:44:01;102685.69;;;-1.59;100.00
29315;BME280;16320;53.954;9.506;2023-01-28T06:47:05;102676.00;;;-1.68;100.00
29315;BME280;16320;53.954;9.506;2023-01-28T06:50:10;102689.06;;;-1.62;100.00
29315;BME280;16320;53.954;9.506;2023-01-28T06:53:16;102693.47;;;-1.58;100.00
29315;BME280;16320;53.954;9.506;2023-01-28T06:56:21;102679.78;;;-1.57;100.00
29315;BME280;16320;53.954;9.506;2023-01-28T06:59:26;102682.50;;;-1.52;100.00
29315;BME280;16320;53.954;9.506;2023-01-28T07:02:30;102686.06;;;-1.47;100.00
29315;BME280;16320;53.954;9.506;2023-01-28T07:05:34;102683.69;;;-1.41;100.00
29315;BME280;16320;53.954;9.506;2023-01-28T07:08:39;102685.41;;;-1.40;100.00
29315;BME280;16320;53.954;9.506;2023-01-28T07:11:44;102685.47;;;-1.38;100.00
29315;BME280;16320;53.954;9.506;2023-01-28T07:14:48;102693.09;;;-1.43;100.00
29315;BME280;16320;53.954;9.506;2023-01-28T07:17:53;102704.25;;;-1.42;100.00
29315;BME280;16320;53.954;9.506;2023-01-28T07:20:57;102698.31;;;-1.40;100.00
29315;BME280;16320;53.954;9.506;2023-01-28T07:24:04;102700.78;;;-1.44;100.00
29315;BME280;16320;53.954;9.506;2023-01-28T07:27:09;102706.88;;;-1.41;100.00
29315;BME280;16320;53.954;9.506;2023-01-28T07:30:14;102723.13;;;-1.43;100.00
29315;BME280;16320;53.954;9.506;2023-01-28T07:33:20;102721.41;;;-1.44;100.00
29315;BME280;16320;53.954;9.506;2023-01-28T07:36:25;102724.19;;;-1.37;100.00
29315;BME280;16320;53.954;9.506;2023-01-28T07:39:29;102731.97;;;-1.35;100.00
29315;BME280;16320;53.954;9.506;2023-01-28T07:42:34;102733.91;;;-1.28;100.00
29315;BME280;16320;53.954;9.506;2023-01-28T07:45:38;102745.19;;;-1.24;100.00
29315;BME280;16320;53.954;9.506;2023-01-28T07:48:42;102747.84;;;-1.21;100.00
29315;BME280;16320;53.954;9.506;2023-01-28T07:51:47;102744.47;;;-1.19;100.00
29315;BME280;16320;53.954;9.506;2023-01-28T07:54:53;102735.91;;;-1.18;100.00
29315;BME280;16320;53.954;9.506;2023-01-28T07:57:58;102742.94;;;-1.14;100.00
29315;BME280;16320;53.954;9.506;2023-01-28T08:01:04;102743.97;;;-1.07;100.00
29315;BME280;16320;53.954;9.506;2023-01-28T08:04:08;102743.28;;;-1.01;100.00
29315;BME280;16320;53.954;9.506;2023-01-28T08:07:14;102750.22;;;-0.99;100.00
29315;BME280;16320;53.954;9.506;2023-01-28T08:10:48;102756.31;;;-0.97;100.00
29315;BME280;16320;53.954;9.506;2023-01-28T08:14:25;102751.50;;;-0.84;100.00
29315;BME280;16320;53.954;9.506;2023-01-28T08:17:29;102756.00;;;-0.77;100.00
29315;BME280;16320;53.954;9.506;2023-01-28T08:20:34;102763.56;;;-0.83;100.00
29315;BME280;16320;53.954;9.506;2023-01-28T08:23:40;102763.56;;;-0.83;100.00
29315;BME280;16320;53.954;9.506;2023-01-28T08:26:47;102761.06;;;-0.80;100.00
29315;BME280;16320;53.954;9.506;2023-01-28T08:29:51;102769.75;;;-0.77;100.00
29315;BME280;16320;53.954;9.506;2023-01-28T08:32:57;102776.72;;;-0.74;100.00
29315;BME280;16320;53.954;9.506;2023-01-28T08:36:03;102775.06;;;-0.72;100.00
29315;BME280;16320;53.954;9.506;2023-01-28T08:39:07;102769.16;;;-0.68;100.00
29315;BME280;16320;53.954;9.506;2023-01-28T08:42:12;102783.16;;;-0.60;100.00
29315;BME280;16320;53.954;9.506;2023-01-28T08:45:17;102798.88;;;-0.52;100.00
29315;BME280;16320;53.954;9.506;2023-01-28T08:48:22;102787.06;;;-0.42;100.00
29315;BME280;16320;53.954;9.506;2023-01-28T08:51:26;102798.66;;;-0.26;100.00
29315;BME280;16320;53.954;9.506;2023-01-28T08:54:32;102788.28;;;-0.28;100.00
29315;BME280;16320;53.954;9.506;2023-01-28T08:57:37;102778.81;;;-0.29;100.00
29315;BME280;16320;53.954;9.506;2023-01-28T09:00:43;102766.25;;;-0.15;100.00
29315;BME280;16320;53.954;9.506;2023-01-28T09:03:47;102773.63;;;0.05;100.00
29315;BME280;16320;53.954;9.506;2023-01-28T09:06:53;102760.91;;;0.12;100.00
29315;BME280;16320;53.954;9.506;2023-01-28T09:09:58;102764.69;;;0.27;100.00
29315;BME280;16320;53.954;9.506;2023-01-28T09:13:08;102762.22;;;0.31;100.00
29315;BME280;16320;53.954;9.506;2023-01-28T09:16:13;102747.78;;;0.41;100.00
29315;BME280;16320;53.954;9.506;2023-01-28T09:19:18;102739.13;;;0.39;100.00
29315;BME280;16320;53.954;9.506;2023-01-28T09:22:22;102734.00;;;0.42;100.00
29315;BME280;16320;53.954;9.506;2023-01-28T09:25:27;102723.66;;;0.42;100.00
29315;BME280;16320;53.954;9.506;2023-01-28T09:28:32;102712.25;;;0.32;100.00
29315;BME280;16320;53.954;9.506;2023-01-28T09:31:37;102704.34;;;0.25;100.00
29315;BME280;16320;53.954;9.506;2023-01-28T09:34:41;102693.94;;;0.22;100.00
29315;BME280;16320;53.954;9.506;2023-01-28T09:37:48;102699.28;;;0.31;100.00
29315;BME280;16320;53.954;9.506;2023-01-28T09:40:52;102708.88;;;0.35;100.00
29315;BME280;16320;53.954;9.506;2023-01-28T09:44:20;102704.75;;;0.43;100.00
29315;BME280;16320;53.954;9.506;2023-01-28T09:50:49;102708.66;;;0.64;100.00
29315;BME280;16320;53.954;9.506;2023-01-28T09:53:59;102706.88;;;0.63;100.00
29315;BME280;16320;53.954;9.506;2023-01-28T09:57:25;102713.00;;;0.66;100.00
29315;BME280;16320;53.954;9.506;2023-01-28T10:18:49;102684.84;;;0.80;100.00
29315;BME280;16320;53.954;9.506;2023-01-28T10:25:24;102667.44;;;0.73;100.00
29315;BME280;16320;53.954;9.506;2023-01-28T10:28:34;102657.22;;;0.79;100.00
29315;BME280;16320;53.954;9.506;2023-01-28T10:31:53;102665.69;;;0.72;100.00
29315;BME280;16320;53.954;9.506;2023-01-28T10:34:58;102648.38;;;0.69;100.00
29315;BME280;16320;53.954;9.506;2023-01-28T10:38:12;102629.66;;;0.81;100.00
29315;BME280;16320;53.954;9.506;2023-01-28T10:41:21;102615.16;;;0.89;100.00
29315;BME280;16320;53.954;9.506;2023-01-28T10:44:39;102600.53;;;0.91;100.00
29315;BME280;16320;53.954;9.506;2023-01-28T10:47:53;102589.25;;;0.86;100.00
29315;BME280;16320;53.954;9.506;2023-01-28T10:51:01;102584.84;;;0.82;100.00
29315;BME280;16320;53.954;9.506;2023-01-28T10:57:25;102603.84;;;0.84;100.00
29315;BME280;16320;53.954;9.506;2023-01-28T11:00:36;102600.59;;;0.95;100.00
29315;BME280;16320;53.954;9.506;2023-01-28T11:03:54;102604.19;;;1.03;100.00
29315;BME280;16320;53.954;9.506;2023-01-28T11:07:03;102625.09;;;1.15;100.00
29315;BME280;16320;53.954;9.506;2023-01-28T11:10:34;102616.63;;;1.22;100.00
29315;BME280;16320;53.954;9.506;2023-01-28T11:13:49;102614.06;;;1.24;100.00
29315;BME280;16320;53.954;9.506;2023-01-28T11:16:55;102613.09;;;1.17;100.00
29315;BME280;16320;53.954;9.506;2023-01-28T11:20:39;102627.78;;;1.20;100.00
29315;BME280;16320;53.954;9.506;2023-01-28T11:23:52;102637.44;;;1.28;100.00
29315;BME280;16320;53.954;9.506;2023-01-28T11:27:15;102616.81;;;1.35;100.00
29315;BME280;16320;53.954;9.506;2023-01-28T11:30:32;102617.81;;;1.41;100.00
29315;BME280;16320;53.954;9.506;2023-01-28T11:37:14;102609.50;;;1.61;100.00
29315;BME280;16320;53.954;9.506;2023-01-28T11:40:19;102610.53;;;1.74;100.00
29315;BME280;16320;53.954;9.506;2023-01-28T11:43:28;102602.94;;;1.85;100.00
29315;BME280;16320;53.954;9.506;2023-01-28T11:50:42;102595.19;;;1.86;100.00
29315;BME280;16320;53.954;9.506;2023-01-28T11:54:09;102594.28;;;1.84;100.00
29315;BME280;16320;53.954;9.506;2023-01-28T11:57:23;102588.16;;;1.77;100.00
29315;BME280;16320;53.954;9.506;2023-01-28T12:00:44;102593.41;;;1.82;100.00
29315;BME280;16320;53.954;9.506;2023-01-28T12:04:13;102569.25;;;1.86;100.00
29315;BME280;16320;53.954;9.506;2023-01-28T12:07:55;102560.69;;;1.90;100.00
29315;BME280;16320;53.954;9.506;2023-01-28T12:21:43;102545.94;;;1.86;100.00
29315;BME280;16320;53.954;9.506;2023-01-28T12:42:55;102541.72;;;1.94;100.00
29315;BME280;16320;53.954;9.506;2023-01-28T12:46:42;102537.41;;;1.95;100.00
29315;BME280;16320;53.954;9.506;2023-01-28T12:50:30;102539.00;;;1.85;100.00
29315;BME280;16320;53.954;9.506;2023-01-28T12:54:01;102539.13;;;1.94;100.00
29315;BME280;16320;53.954;9.506;2023-01-28T12:57:18;102546.06;;;1.95;100.00
29315;BME280;16320;53.954;9.506;2023-01-28T13:11:04;102542.38;;;1.78;100.00
29315;BME280;16320;53.954;9.506;2023-01-28T13:14:14;102534.69;;;1.84;100.00
29315;BME280;16320;53.954;9.506;2023-01-28T13:17:31;102536.38;;;1.80;100.00
29315;BME280;16320;53.954;9.506;2023-01-28T13:20:48;102545.84;;;1.80;100.00
29315;BME280;16320;53.954;9.506;2023-01-28T13:24:20;102535.53;;;1.83;100.00
29315;BME280;16320;53.954;9.506;2023-01-28T13:27:27;102533.84;;;1.87;100.00
29315;BME280;16320;53.954;9.506;2023-01-28T13:30:47;102538.19;;;1.88;100.00
29315;BME280;16320;53.954;9.506;2023-01-28T13:37:35;102534.00;;;1.97;100.00
29315;BME280;16320;53.954;9.506;2023-01-28T13:40:40;102527.06;;;1.96;100.00
29315;BME280;16320;53.954;9.506;2023-01-28T13:43:46;102540.84;;;1.92;100.00
29315;BME280;16320;53.954;9.506;2023-01-28T13:46:53;102550.34;;;1.93;100.00
29315;BME280;16320;53.954;9.506;2023-01-28T13:50:20;102552.91;;;1.89;100.00
29315;BME280;16320;53.954;9.506;2023-01-28T14:11:01;102519.06;;;1.79;100.00
29315;BME280;16320;53.954;9.506;2023-01-28T14:14:24;102527.81;;;1.86;100.00
29315;BME280;16320;53.954;9.506;2023-01-28T14:17:50;102526.09;;;1.88;100.00
29315;BME280;16320;53.954;9.506;2023-01-28T14:20:59;102547.75;;;1.90;100.00
29315;BME280;16320;53.954;9.506;2023-01-28T14:24:05;102551.97;;;1.87;100.00
29315;BME280;16320;53.954;9.506;2023-01-28T14:27:25;102552.75;;;1.79;100.00
29315;BME280;16320;53.954;9.506;2023-01-28T14:30:44;102564.91;;;1.85;100.00
29315;BME280;16320;53.954;9.506;2023-01-28T14:33:52;102558.03;;;1.86;100.00
29315;BME280;16320;53.954;9.506;2023-01-28T14:37:01;102568.41;;;1.86;100.00
29315;BME280;16320;53.954;9.506;2023-01-28T14:40:12;102555.47;;;1.87;100.00
29315;BME280;16320;53.954;9.506;2023-01-28T14:43:22;102558.03;;;1.86;100.00
29315;BME280;16320;53.954;9.506;2023-01-28T14:46:44;102564.91;;;1.83;100.00
29315;BME280;16320;53.954;9.506;2023-01-28T14:50:21;102555.50;;;1.90;100.00
29315;BME280;16320;53.954;9.506;2023-01-28T14:54:13;102552.84;;;1.86;100.00
29315;BME280;16320;53.954;9.506;2023-01-28T14:57:58;102550.28;;;1.87;100.00
29315;BME280;16320;53.954;9.506;2023-01-28T15:01:22;102552.00;;;1.88;100.00
29315;BME280;16320;53.954;9.506;2023-01-28T15:04:32;102542.50;;;1.86;100.00
29315;BME280;16320;53.954;9.506;2023-01-28T15:07:37;102555.38;;;1.81;100.00
29315;BME280;16320;53.954;9.506;2023-01-28T15:10:46;102564.97;;;1.88;100.00
29315;BME280;16320;53.954;9.506;2023-01-28T15:13:56;102560.66;;;1.87;100.00
29315;BME280;16320;53.954;9.506;2023-01-28T15:17:05;102548.50;;;1.85;100.00
29315;BME280;16320;53.954;9.506;2023-01-28T15:20:18;102553.66;;;1.83;100.00
29315;BME280;16320;53.954;9.506;2023-01-28T15:23:42;102549.34;;;1.82;100.00
29315;BME280;16320;53.954;9.506;2023-01-28T15:26:47;102548.50;;;1.83;100.00
29315;BME280;16320;53.954;9.506;2023-01-28T15:29:54;102563.19;;;1.84;100.00
29315;BME280;16320;53.954;9.506;2023-01-28T15:33:13;102573.50;;;1.79;100.00
29315;BME280;16320;53.954;9.506;2023-01-28T15:36:17;102567.41;;;1.76;100.00
29315;BME280;16320;53.954;9.506;2023-01-28T15:39:24;102572.59;;;1.76;100.00
29315;BME280;16320;53.954;9.506;2023-01-28T15:42:28;102588.25;;;1.87;100.00
29315;BME280;16320;53.954;9.506;2023-01-28T15:45:35;102596.06;;;1.88;100.00
29315;BME280;16320;53.954;9.506;2023-01-28T15:48:47;102596.94;;;1.87;100.00
29315;BME280;16320;53.954;9.506;2023-01-28T15:51:53;102596.88;;;1.84;100.00
29315;BME280;16320;53.954;9.506;2023-01-28T15:54:57;102588.22;;;1.82;100.00
29315;BME280;16320;53.954;9.506;2023-01-28T15:58:19;102558.84;;;1.83;100.00
29315;BME280;16320;53.954;9.506;2023-01-28T16:01:23;102562.31;;;1.85;100.00
29315;BME280;16320;53.954;9.506;2023-01-28T16:04:29;102564.06;;;1.85;100.00
29315;BME280;16320;53.954;9.506;2023-01-28T16:07:44;102560.59;;;1.84;100.00
29315;BME280;16320;53.954;9.506;2023-01-28T16:10:55;102551.13;;;1.86;100.00
29315;BME280;16320;53.954;9.506;2023-01-28T16:14:00;102541.63;;;1.88;100.00
29315;BME280;16320;53.954;9.506;2023-01-28T16:17:04;102558.94;;;1.89;100.00
29315;BME280;16320;53.954;9.506;2023-01-28T16:20:34;102579.69;;;1.89;100.00
29315;BME280;16320;53.954;9.506;2023-01-28T16:23:39;102590.09;;;1.92;100.00
29315;BME280;16320;53.954;9.506;2023-01-28T16:26:43;102574.53;;;1.92;100.00
29315;BME280;16320;53.954;9.506;2023-01-28T16:30:00;102590.03;;;1.89;100.00
29315;BME280;16320;53.954;9.506;2023-01-28T16:33:20;102576.25;;;1.93;100.00
29315;BME280;16320;53.954;9.506;2023-01-28T16:36:31;102576.34;;;1.99;100.00
29315;BME280;16320;53.954;9.506;2023-01-28T16:39:40;102562.50;;;1.97;100.00
29315;BME280;16320;53.954;9.506;2023-01-28T16:42:46;102560.75;;;1.96;100.00
29315;BME280;16320;53.954;9.506;2023-01-28T16:45:53;102550.38;;;1.96;100.00
29315;BME280;16320;53.954;9.506;2023-01-28T16:48:58;102549.50;;;1.94;100.00
29315;BME280;16320;53.954;9.506;2023-01-28T16:52:04;102567.69;;;1.97;100.00
29315;BME280;16320;53.954;9.506;2023-01-28T16:55:17;102574.59;;;1.97;100.00
29315;BME280;16320;53.954;9.506;2023-01-28T16:58:24;102572.06;;;2.00;100.00
29315;BME280;16320;53.954;9.506;2023-01-28T17:01:29;102565.09;;;1.97;100.00
29315;BME280;16320;53.954;9.506;2023-01-28T17:04:33;102561.66;;;1.97;100.00
29315;BME280;16320;53.954;9.506;2023-01-28T17:07:38;102560.75;;;1.96;100.00
29315;BME280;16320;53.954;9.506;2023-01-28T17:10:42;102559.09;;;1.98;100.00
29315;BME280;16320;53.954;9.506;2023-01-28T17:13:46;102573.81;;;2.03;100.00
29315;BME280;16320;53.954;9.506;2023-01-28T17:16:51;102579.00;;;2.03;100.00
29315;BME280;16320;53.954;9.506;2023-01-28T17:19:55;102572.03;;;1.98;100.00
29315;BME280;16320;53.954;9.506;2023-01-28T17:22:59;102573.81;;;2.04;100.00
29315;BME280;16320;53.954;9.506;2023-01-28T17:26:08;102574.69;;;2.01;100.00
29315;BME280;16320;53.954;9.506;2023-01-28T17:29:13;102573.75;;;1.99;100.00
29315;BME280;16320;53.954;9.506;2023-01-28T17:32:17;102584.13;;;1.99;100.00
29315;BME280;16320;53.954;9.506;2023-01-28T17:35:22;102584.09;;;1.98;100.00
29315;BME280;16320;53.954;9.506;2023-01-28T17:38:26;102585.91;;;2.02;100.00
29315;BME280;16320;53.954;9.506;2023-01-28T17:41:30;102592.81;;;2.01;100.00
29315;BME280;16320;53.954;9.506;2023-01-28T17:44:35;102596.28;;;2.04;100.00
29315;BME280;16320;53.954;9.506;2023-01-28T17:47:39;102593.66;;;2.00;100.00
29315;BME280;16320;53.954;9.506;2023-01-28T17:50:47;102607.50;;;2.03;100.00
29315;BME280;16320;53.954;9.506;2023-01-28T17:53:52;102606.66;;;2.02;100.00
29315;BME280;16320;53.954;9.506;2023-01-28T17:56:57;102600.63;;;2.05;100.00
29315;BME280;16320;53.954;9.506;2023-01-28T18:00:02;102612.81;;;2.10;100.00
29315;BME280;16320;53.954;9.506;2023-01-28T18:03:11;102611.91;;;2.08;100.00
29315;BME280;16320;53.954;9.506;2023-01-28T18:06:16;102617.91;;;2.06;100.00
29315;BME280;16320;53.954;9.506;2023-01-28T18:09:21;102618.75;;;2.05;100.00
29315;BME280;16320;53.954;9.506;2023-01-28T18:12:25;102611.06;;;2.09;100.00
29315;BME280;16320;53.954;9.506;2023-01-28T18:15:32;102613.63;;;2.09;100.00